createdAt,value
2023-02-03T00:17:16.580Z,18.7
2023-02-03T00:37:16.585Z,18.7
2023-02-03T00:57:16.550Z,18.7
2023-02-03T01:17:16.507Z,18.6
2023-02-03T01:37:16.599Z,18.6
2023-02-03T01:57:16.453Z,18.5
2023-02-03T02:17:16.434Z,18.5
2023-02-03T02:37:16.418Z,18.5
2023-02-03T02:57:16.405Z,18.4
2023-02-03T03:17:16.342Z,18.4
2023-02-03T03:37:16.314Z,18.4
2023-02-03T03:57:16.345Z,18.3
2023-02-03T04:17:16.338Z,18.5
2023-02-03T04:37:16.265Z,18.8
2023-02-03T04:57:16.320Z,18.9
2023-02-03T05:17:16.345Z,19.1
2023-02-03T05:37:16.217Z,19.2
2023-02-03T05:57:16.220Z,19.3
2023-02-03T06:17:16.224Z,19.4
2023-02-03T06:37:16.135Z,19.4
2023-02-03T06:57:16.084Z,19.5
2023-02-03T07:17:16.065Z,19.5
2023-02-03T07:37:16.167Z,19.6
2023-02-03T07:57:16.029Z,19.6
2023-02-03T08:17:15.967Z,19.7
2023-02-03T08:37:16.076Z,19.7
2023-02-03T08:57:16.011Z,19.7
2023-02-03T09:17:15.926Z,19.8
2023-02-03T09:37:16.020Z,19.8
2023-02-03T09:57:15.830Z,19.8
2023-02-03T10:17:15.837Z,19.8
2023-02-03T10:37:15.840Z,19.8
2023-02-03T10:57:15.789Z,19.8
2023-02-03T11:17:15.945Z,19.8
2023-02-03T11:37:15.736Z,19.8
2023-02-03T11:57:15.721Z,19.9
2023-02-03T12:17:15.684Z,19.9
2023-02-03T12:37:15.667Z,19.9
2023-02-03T12:57:15.627Z,19.9
2023-02-03T13:17:15.614Z,19.9
2023-02-03T13:37:15.663Z,19.9
2023-02-03T13:57:15.568Z,20.0
2023-02-03T14:17:15.544Z,20.0
2023-02-03T14:37:15.552Z,20.0
2023-02-03T14:57:15.468Z,20.0
2023-02-03T15:17:15.451Z,20.0
2023-02-03T15:37:15.433Z,20.0
2023-02-03T15:57:15.378Z,20.0
2023-02-03T16:17:15.372Z,20.0
2023-02-03T16:37:15.394Z,20.0
2023-02-03T16:57:15.388Z,20.0
2023-02-03T17:17:15.408Z,20.0
2023-02-03T17:37:15.373Z,20.1
2023-02-03T17:57:15.334Z,20.1
2023-02-03T18:17:15.205Z,19.4
2023-02-03T18:37:15.339Z,17.8
2023-02-03T18:57:15.314Z,17.3
2023-02-03T19:17:15.242Z,18.7
2023-02-03T19:37:15.222Z,19.3
2023-02-03T19:57:15.071Z,19.5
2023-02-03T20:17:15.138Z,19.7
2023-02-03T20:37:15.025Z,19.6
2023-02-03T20:57:15.011Z,19.5
2023-02-03T21:17:15.007Z,19.4
2023-02-03T21:37:14.992Z,19.3
2023-02-03T21:57:14.943Z,19.2
2023-02-03T22:17:14.940Z,19.1
2023-02-03T22:37:14.881Z,19.0
2023-02-03T22:57:14.885Z,18.9
2023-02-03T23:17:14.851Z,18.9
2023-02-03T23:37:14.809Z,18.8
2023-02-03T23:57:14.786Z,18.7
